Quinsam — VY6800 — position and weather

sailwx.info

Track history (hours):
 
Tides and Currents Weather Stations Pressure Air Temp Water Temp Dewpoint Dewpoint Depression Visibility Wind Speed Wind Dir Waves Ship Positions

Quinsam

Last reported at 2014-Jul-23 01:33 UTC. Time now 2014-Jul-23 01:45 UTC.
Position N 49°11' W 123°52'.

Length 88 m; draft 1.5 m.

Type: Ship. MMSI: 316001266.

Date/timePositionNaut miles runAvg speedWind from/ knotsBaromVisibWave heightAir tempDewpointWater temp
2014-Jul-23 01:33N 49°11' W 123°52'0 0.1
2014-Jul-23 00:28N 49°11' W 123°52'1 1.6
2014-Jul-22 23:34N 49°10' W 123°54'1 1.4
2014-Jul-22 22:33N 49°10' W 123°56'1 1.4
2014-Jul-22 21:34N 49°10' W 123°54'1 1.3
2014-Jul-22 20:33N 49°11' W 123°52'0 0.2
2014-Jul-22 19:22N 49°11' W 123°52'1 1.8
2014-Jul-22 18:33N 49°10' W 123°54'1 1.4
2014-Jul-22 17:33N 49°10' W 123°56'1 0.6
2014-Jul-22 16:34N 49°10' W 123°55'2 2.2
2014-Jul-22 15:32N 49°11' W 123°52'0 0.0
2014-Jul-22 14:33N 49°11' W 123°52'0 0.3
2014-Jul-22 13:33N 49°11' W 123°52'0 0.3
2014-Jul-22 12:33N 49°11' W 123°52'1 0.1
2014-Jul-22 06:29N 49°11' W 123°52'0 0.0
2014-Jul-22 05:33N 49°11' W 123°52'0 0.0
2014-Jul-22 04:29N 49°11' W 123°52'1 1.3
2014-Jul-22 03:33N 49°10' W 123°53'0 0.2
2014-Jul-22 02:33N 49°10' W 123°53'1 0.6
2014-Jul-22 01:32N 49°11' W 123°52'1 0.5
2014-Jul-22 00:30N 49°11' W 123°52'0 0.0
2014-Jul-21 23:33N 49°11' W 123°52'3 2.9
2014-Jul-21 22:33N 49°10' W 123°56'1 0.6
2014-Jul-21 21:33N 49°10' W 123°55'2 1.8
2014-Jul-21 20:33N 49°11' W 123°52'2 9.4
2014-Jul-21 20:18N 49°10' W 123°56'3 3.5
2014-Jul-21 19:28N 49°11' W 123°52'3 2.8
2014-Jul-21 18:33N 49°10' W 123°55'0 0.4
2014-Jul-21 17:32N 49°10' W 123°56'1 1.0
2014-Jul-21 16:34N 49°10' W 123°54'2 1.9
2014-Jul-21 15:33N 49°11' W 123°52'0 0.0
2014-Jul-21 14:33N 49°11' W 123°52'0 0.0
2014-Jul-21 13:27N 49°11' W 123°52'1 0.6
2014-Jul-21 12:33N 49°11' W 123°52'2 0.3
2014-Jul-21 05:33N 49°10' W 123°55'3 2.5
2014-Jul-21 04:29N 49°11' W 123°52'1 1.4
2014-Jul-21 03:34N 49°10' W 123°54'0 0.4
2014-Jul-21 02:34N 49°11' W 123°53'0 0.1
2014-Jul-21 01:33N 49°11' W 123°53'1 0.7
2014-Jul-21 00:33N 49°11' W 123°52'0 0.1
2014-Jul-20 23:32N 49°11' W 123°52'3 2.8
2014-Jul-20 22:33N 49°10' W 123°56'3 2.7
2014-Jul-20 21:32N 49°11' W 123°52'3 3.0
2014-Jul-20 20:33N 49°10' W 123°56'2 1.7
2014-Jul-20 19:33N 49°11' W 123°53'1 1.2
2014-Jul-20 18:32N 49°11' W 123°52'3 3.0
2014-Jul-20 17:33N 49°10' W 123°56'3 2.7
2014-Jul-20 16:33N 49°11' W 123°52'0 0.2
2014-Jul-20 15:34N 49°11' W 123°52'3 2.9
2014-Jul-20 14:33N 49°10' W 123°56'2 2.5
2014-Jul-20 13:34N 49°11' W 123°52'0 0.4
2014-Jul-20 12:30N 49°11' W 123°52'0 0.0
2014-Jul-20 11:18N 49°11' W 123°52'0 0.0
2014-Jul-20 10:21N 49°11' W 123°52'0 0.0
2014-Jul-20 09:33N 49°11' W 123°52'0 0.0
2014-Jul-20 08:15N 49°11' W 123°52'0 0.0
2014-Jul-20 06:33N 49°11' W 123°52'0 0.0
2014-Jul-20 05:25N 49°11' W 123°52'0 0.0
2014-Jul-20 04:30N 49°11' W 123°52'1 1.5
2014-Jul-20 03:33N 49°10' W 123°54'1 0.8
2014-Jul-20 02:33N 49°10' W 123°55'2 1.9
2014-Jul-20 01:27N 49°11' W 123°52'0 0.1
2014-Jul-20 00:23N 49°11' W 123°52'0 0.3
2014-Jul-19 23:33N 49°11' W 123°52'3 2.6
2014-Jul-19 22:33N 49°10' W 123°56'3 2.0
2014-Jul-19 21:08N 49°11' W 123°52'3 4.7
2014-Jul-19 20:32N 49°10' W 123°56'0 0.3
2014-Jul-19 19:33N 49°10' W 123°55'3 2.3
2014-Jul-19 18:27N 49°11' W 123°52'3 3.1
2014-Jul-19 17:31N 49°10' W 123°56'3 2.7
2014-Jul-19 16:33N 49°11' W 123°52'0 0.3
2014-Jul-19 15:31N 49°11' W 123°52'0 0.0
2014-Jul-19 14:21N 49°11' W 123°52'0 0.2
2014-Jul-19 13:33N 49°11' W 123°52'0 0.2
2014-Jul-19 12:20N 49°11' W 123°52'0 0.0
2014-Jul-19 11:20N 49°11' W 123°52'0 0.0
2014-Jul-19 10:20N 49°11' W 123°52'0 0.0
2014-Jul-19 06:29N 49°11' W 123°52'0 0.0
2014-Jul-19 05:33N 49°11' W 123°52'0 0.0
2014-Jul-19 04:33N 49°11' W 123°52'2 2.0
2014-Jul-19 03:33N 49°10' W 123°55'1 0.9
2014-Jul-19 02:33N 49°11' W 123°53'1 0.8
2014-Jul-19 01:33N 49°11' W 123°52'0 0.3
2014-Jul-19 00:28N 49°11' W 123°52'1 0.6
2014-Jul-18 23:33N 49°11' W 123°52'2 2.4
2014-Jul-18 22:33N 49°10' W 123°56'3 2.7
2014-Jul-18 21:30N 49°11' W 123°52'0 0.0
2014-Jul-18 20:28N 49°11' W 123°52'2 2.2
2014-Jul-18 19:33N 49°10' W 123°54'1 0.9
2014-Jul-18 18:33N 49°10' W 123°56'0 0.0
2014-Jul-18 17:33N 49°10' W 123°56'2 1.7
2014-Jul-18 16:33N 49°10' W 123°53'1 1.0
2014-Jul-18 15:29N 49°11' W 123°52'0 0.1
2014-Jul-18 14:30N 49°11' W 123°52'0 0.5
2014-Jul-18 13:34N 49°11' W 123°52'0 0.4
2014-Jul-18 12:33N 49°11' W 123°52'0 0.0
2014-Jul-18 11:22N 49°11' W 123°52'0 0.0
2014-Jul-18 10:31N 49°11' W 123°52'0 0.0
2014-Jul-18 06:29N 49°11' W 123°52'0 0.0
2014-Jul-18 05:33N 49°11' W 123°52'0 0.0
2014-Jul-18 04:33N 49°11' W 123°52'2 1.7
2014-Jul-18 03:33N 49°10' W 123°54'0 0.4
2014-Jul-18 02:33N 49°10' W 123°54'0 0.3
2014-Jul-18 01:33N 49°11' W 123°53'1 0.9
2014-Jul-18 00:31N 49°11' W 123°52'0 0.1
2014-Jul-17 23:33N 49°11' W 123°52'3 2.7
2014-Jul-17 22:33N 49°10' W 123°56'1 0.7
2014-Jul-17 21:34N 49°10' W 123°55'2 2.0
2014-Jul-17 20:31N 49°11' W 123°52'0 0.1
2014-Jul-17 19:32N 49°11' W 123°52'2 2.5
2014-Jul-17 18:33N 49°10' W 123°55'0 0.3
2014-Jul-17 17:30N 49°10' W 123°56'1 1.4
2014-Jul-17 16:33N 49°10' W 123°54'2 1.6
2014-Jul-17 15:33N 49°11' W 123°52'0 0.0
2014-Jul-17 14:25N 49°11' W 123°52'0 0.5
2014-Jul-17 13:34N 49°11' W 123°52'0 0.1
2014-Jul-17 12:33N 49°11' W 123°52'0 0.4
2014-Jul-17 11:32N 49°11' W 123°52'0 0.0
2014-Jul-17 10:26N 49°11' W 123°52'0 0.0
2014-Jul-17 09:26N 49°11' W 123°52'0 0.0
2014-Jul-17 08:29N 49°11' W 123°52'0 0.0
2014-Jul-17 07:26N 49°11' W 123°52'0 0.0
2014-Jul-17 06:33N 49°11' W 123°52'3 2.9
2014-Jul-17 05:34N 49°10' W 123°56'3 2.8
2014-Jul-17 04:32N 49°11' W 123°52'2 1.8
2014-Jul-17 03:33N 49°10' W 123°54'1 0.7
2014-Jul-17 02:33N 49°11' W 123°53'1 0.8
2014-Jul-17 01:32N 49°11' W 123°52'0 0.4
2014-Jul-17 00:33N 49°11' W 123°52'0 0.0
2014-Jul-16 23:30N 49°11' W 123°52'3 3.0
2014-Jul-16 22:34N 49°10' W 123°56'3 2.7
2014-Jul-16 21:31N 49°11' W 123°52'0 0.0
2014-Jul-16 20:33N 49°11' W 123°52'2 2.0
2014-Jul-16 19:33N 49°10' W 123°54'1 0.9
2014-Jul-16 18:33N 49°10' W 123°56'0 0.0
2014-Jul-16 17:22N 49°10' W 123°56'1 1.8
2014-Jul-16 16:33N 49°10' W 123°54'1 1.4
2014-Jul-16 15:33N 49°11' W 123°52'0 0.0
2014-Jul-16 14:23N 49°11' W 123°52'0 0.5
2014-Jul-16 13:33N 49°11' W 123°52'0 0.0
2014-Jul-16 12:33N 49°11' W 123°52'0 0.2
2014-Jul-16 10:32N 49°11' W 123°52'0 0.0
2014-Jul-16 09:26N 49°11' W 123°52'0 0.0
2014-Jul-16 08:20N 49°11' W 123°52'0 0.0
2014-Jul-16 06:32N 49°11' W 123°52'0 0.0
2014-Jul-16 05:33N 49°11' W 123°52'0 0.0
2014-Jul-16 04:32N 49°11' W 123°52'1 1.3
2014-Jul-16 03:33N 49°10' W 123°53'0 0.2
2014-Jul-16 02:33N 49°11' W 123°53'1 0.7
2014-Jul-16 01:32N 49°11' W 123°52'0 0.3
2014-Jul-16 00:32N 49°11' W 123°52'0 0.3
2014-Jul-15 23:33N 49°11' W 123°52'3 2.7
2014-Jul-15 22:34N 49°10' W 123°56'3 2.8
2014-Jul-15 21:33N 49°11' W 123°52'0 0.1
2014-Jul-15 20:33N 49°11' W 123°52'1 0.6
2014-Jul-15 19:32N 49°11' W 123°53'2 2.0
2014-Jul-15 18:33N 49°10' W 123°55'0 0.4
2014-Jul-15 17:33N 49°10' W 123°56'0 0.2
2014-Jul-15 16:33N 49°10' W 123°56'3 2.6
2014-Jul-15 15:33N 49°11' W 123°52'0 0.1
2014-Jul-15 14:33N 49°11' W 123°52'1 0.7
2014-Jul-15 13:33N 49°11' W 123°53'0 0.0
2014-Jul-15 12:33N 49°11' W 123°53'1 0.6
2014-Jul-15 11:27N 49°11' W 123°52'0 0.0
2014-Jul-15 09:33N 49°11' W 123°52'0 0.0
2014-Jul-15 08:27N 49°11' W 123°52'0 0.0
2014-Jul-15 06:27N 49°11' W 123°52'0 0.0
2014-Jul-15 05:32N 49°11' W 123°52'0 0.0
2014-Jul-15 04:33N 49°11' W 123°52'2 1.5
2014-Jul-15 03:33N 49°10' W 123°54'0 0.4
2014-Jul-15 02:33N 49°10' W 123°53'1 0.5
2014-Jul-15 01:33N 49°11' W 123°53'1 0.6
2014-Jul-15 00:31N 49°11' W 123°52'0 0.4
2014-Jul-14 23:33N 49°11' W 123°52'3 2.5
2014-Jul-14 22:33N 49°10' W 123°56'3 2.8
2014-Jul-14 21:32N 49°11' W 123°52'1 1.0
2014-Jul-14 20:33N 49°10' W 123°53'2 1.9
2014-Jul-14 19:34N 49°10' W 123°56'0 0.0
2014-Jul-14 18:32N 49°10' W 123°56'0 0.0
2014-Jul-14 17:18N 49°10' W 123°56'3 3.5
2014-Jul-14 16:33N 49°11' W 123°52'0 0.3
2014-Jul-14 15:33N 49°11' W 123°52'0 0.0
2014-Jul-14 14:33N 49°11' W 123°52'0 0.0
2014-Jul-14 13:32N 49°11' W 123°52'0 0.5
2014-Jul-14 12:34N 49°11' W 123°52'1 0.2
2014-Jul-14 10:11N 49°11' W 123°52'0 0.0
2014-Jul-14 09:17N 49°11' W 123°52'0 0.0
2014-Jul-14 08:29N 49°11' W 123°52'0 0.0
2014-Jul-14 07:29N 49°11' W 123°52'0 0.0
2014-Jul-14 06:26N 49°11' W 123°52'3 2.9
2014-Jul-14 05:33N 49°10' W 123°55'3 2.5
2014-Jul-14 04:33N 49°11' W 123°52'2 1.7
2014-Jul-14 03:33N 49°10' W 123°54'1 0.7
2014-Jul-14 02:33N 49°11' W 123°53'1 1.0
2014-Jul-14 01:33N 49°11' W 123°52'0 0.1
2014-Jul-14 00:31N 49°11' W 123°52'0 0.1
2014-Jul-13 23:33N 49°11' W 123°52'3 2.8
2014-Jul-13 22:34N 49°10' W 123°56'3 2.4
2014-Jul-13 21:22N 49°11' W 123°52'3 3.6
2014-Jul-13 20:34N 49°10' W 123°56'1 1.2
2014-Jul-13 19:33N 49°10' W 123°54'2 1.7
2014-Jul-13 18:33N 49°11' W 123°52'3 2.6
2014-Jul-13 17:27N 49°10' W 123°56'2 2.5
2014-Jul-13 16:33N 49°11' W 123°53'0 0.3
2014-Jul-13 15:26N 49°11' W 123°52'3 3.0
2014-Jul-13 14:33N 49°10' W 123°56'3 2.5
2014-Jul-13 13:33N 49°11' W 123°52'0 0.1
2014-Jul-13 08:33N 49°11' W 123°52'0 0.0
2014-Jul-13 07:33N 49°11' W 123°52'0 0.0
2014-Jul-13 06:33N 49°11' W 123°52'0 0.0
2014-Jul-13 05:31N 49°11' W 123°52'0 0.0
2014-Jul-13 04:29N 49°11' W 123°52'2 2.2
2014-Jul-13 03:33N 49°10' W 123°54'0 0.5
2014-Jul-13 02:33N 49°11' W 123°54'1 1.4
2014-Jul-13 01:34N 49°11' W 123°52'  
Track history (hours):
 
Tides and Currents Weather Stations Pressure Air Temp Water Temp Dewpoint Dewpoint Depression Visibility Wind Speed Wind Dir Waves Ship Positions

Quinsam

Last reported at 2014-Jul-23 01:33 UTC. Time now 2014-Jul-23 01:45 UTC.
Position N 49°11' W 123°52'.

Length 88 m; draft 1.5 m.

Type: Ship. MMSI: 316001266.

Date/timePositionNaut miles runAvg speedWind from/ knotsBaromVisibWave heightAir tempDewpointWater temp
2014-Jul-23 01:33N 49°11' W 123°52'0 0.1
2014-Jul-23 00:28N 49°11' W 123°52'1 1.6
2014-Jul-22 23:34N 49°10' W 123°54'1 1.4
2014-Jul-22 22:33N 49°10' W 123°56'1 1.4
2014-Jul-22 21:34N 49°10' W 123°54'1 1.3
2014-Jul-22 20:33N 49°11' W 123°52'0 0.2
2014-Jul-22 19:22N 49°11' W 123°52'1 1.8
2014-Jul-22 18:33N 49°10' W 123°54'1 1.4
2014-Jul-22 17:33N 49°10' W 123°56'1 0.6
2014-Jul-22 16:34N 49°10' W 123°55'2 2.2
2014-Jul-22 15:32N 49°11' W 123°52'0 0.0
2014-Jul-22 14:33N 49°11' W 123°52'0 0.3
2014-Jul-22 13:33N 49°11' W 123°52'0 0.3
2014-Jul-22 12:33N 49°11' W 123°52'1 0.1
2014-Jul-22 06:29N 49°11' W 123°52'0 0.0
2014-Jul-22 05:33N 49°11' W 123°52'0 0.0
2014-Jul-22 04:29N 49°11' W 123°52'1 1.3
2014-Jul-22 03:33N 49°10' W 123°53'0 0.2
2014-Jul-22 02:33N 49°10' W 123°53'1 0.6
2014-Jul-22 01:32N 49°11' W 123°52'1 0.5
2014-Jul-22 00:30N 49°11' W 123°52'0 0.0
2014-Jul-21 23:33N 49°11' W 123°52'3 2.9
2014-Jul-21 22:33N 49°10' W 123°56'1 0.6
2014-Jul-21 21:33N 49°10' W 123°55'2 1.8
2014-Jul-21 20:33N 49°11' W 123°52'2 9.4
2014-Jul-21 20:18N 49°10' W 123°56'3 3.5
2014-Jul-21 19:28N 49°11' W 123°52'3 2.8
2014-Jul-21 18:33N 49°10' W 123°55'0 0.4
2014-Jul-21 17:32N 49°10' W 123°56'1 1.0
2014-Jul-21 16:34N 49°10' W 123°54'2 1.9
2014-Jul-21 15:33N 49°11' W 123°52'0 0.0
2014-Jul-21 14:33N 49°11' W 123°52'0 0.0
2014-Jul-21 13:27N 49°11' W 123°52'1 0.6
2014-Jul-21 12:33N 49°11' W 123°52'2 0.3
2014-Jul-21 05:33N 49°10' W 123°55'3 2.5
2014-Jul-21 04:29N 49°11' W 123°52'1 1.4
2014-Jul-21 03:34N 49°10' W 123°54'0 0.4
2014-Jul-21 02:34N 49°11' W 123°53'0 0.1
2014-Jul-21 01:33N 49°11' W 123°53'1 0.7
2014-Jul-21 00:33N 49°11' W 123°52'0 0.1
2014-Jul-20 23:32N 49°11' W 123°52'3 2.8
2014-Jul-20 22:33N 49°10' W 123°56'3 2.7
2014-Jul-20 21:32N 49°11' W 123°52'3 3.0
2014-Jul-20 20:33N 49°10' W 123°56'2 1.7
2014-Jul-20 19:33N 49°11' W 123°53'1 1.2
2014-Jul-20 18:32N 49°11' W 123°52'3 3.0
2014-Jul-20 17:33N 49°10' W 123°56'3 2.7
2014-Jul-20 16:33N 49°11' W 123°52'0 0.2
2014-Jul-20 15:34N 49°11' W 123°52'3 2.9
2014-Jul-20 14:33N 49°10' W 123°56'2 2.5
2014-Jul-20 13:34N 49°11' W 123°52'0 0.4
2014-Jul-20 12:30N 49°11' W 123°52'0 0.0
2014-Jul-20 11:18N 49°11' W 123°52'0 0.0
2014-Jul-20 10:21N 49°11' W 123°52'0 0.0
2014-Jul-20 09:33N 49°11' W 123°52'0 0.0
2014-Jul-20 08:15N 49°11' W 123°52'0 0.0
2014-Jul-20 06:33N 49°11' W 123°52'0 0.0
2014-Jul-20 05:25N 49°11' W 123°52'0 0.0
2014-Jul-20 04:30N 49°11' W 123°52'1 1.5
2014-Jul-20 03:33N 49°10' W 123°54'1 0.8
2014-Jul-20 02:33N 49°10' W 123°55'2 1.9
2014-Jul-20 01:27N 49°11' W 123°52'0 0.1
2014-Jul-20 00:23N 49°11' W 123°52'0 0.3
2014-Jul-19 23:33N 49°11' W 123°52'3 2.6
2014-Jul-19 22:33N 49°10' W 123°56'3 2.0
2014-Jul-19 21:08N 49°11' W 123°52'3 4.7
2014-Jul-19 20:32N 49°10' W 123°56'0 0.3
2014-Jul-19 19:33N 49°10' W 123°55'3 2.3
2014-Jul-19 18:27N 49°11' W 123°52'3 3.1
2014-Jul-19 17:31N 49°10' W 123°56'3 2.7
2014-Jul-19 16:33N 49°11' W 123°52'0 0.3
2014-Jul-19 15:31N 49°11' W 123°52'0 0.0
2014-Jul-19 14:21N 49°11' W 123°52'0 0.2
2014-Jul-19 13:33N 49°11' W 123°52'0 0.2
2014-Jul-19 12:20N 49°11' W 123°52'0 0.0
2014-Jul-19 11:20N 49°11' W 123°52'0 0.0
2014-Jul-19 10:20N 49°11' W 123°52'0 0.0
2014-Jul-19 06:29N 49°11' W 123°52'0 0.0
2014-Jul-19 05:33N 49°11' W 123°52'0 0.0
2014-Jul-19 04:33N 49°11' W 123°52'2 2.0
2014-Jul-19 03:33N 49°10' W 123°55'1 0.9
2014-Jul-19 02:33N 49°11' W 123°53'1 0.8
2014-Jul-19 01:33N 49°11' W 123°52'0 0.3
2014-Jul-19 00:28N 49°11' W 123°52'1 0.6
2014-Jul-18 23:33N 49°11' W 123°52'2 2.4
2014-Jul-18 22:33N 49°10' W 123°56'3 2.7
2014-Jul-18 21:30N 49°11' W 123°52'0 0.0
2014-Jul-18 20:28N 49°11' W 123°52'2 2.2
2014-Jul-18 19:33N 49°10' W 123°54'1 0.9
2014-Jul-18 18:33N 49°10' W 123°56'0 0.0
2014-Jul-18 17:33N 49°10' W 123°56'2 1.7
2014-Jul-18 16:33N 49°10' W 123°53'1 1.0
2014-Jul-18 15:29N 49°11' W 123°52'0 0.1
2014-Jul-18 14:30N 49°11' W 123°52'0 0.5
2014-Jul-18 13:34N 49°11' W 123°52'0 0.4
2014-Jul-18 12:33N 49°11' W 123°52'0 0.0
2014-Jul-18 11:22N 49°11' W 123°52'0 0.0
2014-Jul-18 10:31N 49°11' W 123°52'0 0.0
2014-Jul-18 06:29N 49°11' W 123°52'0 0.0
2014-Jul-18 05:33N 49°11' W 123°52'0 0.0
2014-Jul-18 04:33N 49°11' W 123°52'2 1.7
2014-Jul-18 03:33N 49°10' W 123°54'0 0.4
2014-Jul-18 02:33N 49°10' W 123°54'0 0.3
2014-Jul-18 01:33N 49°11' W 123°53'1 0.9
2014-Jul-18 00:31N 49°11' W 123°52'0 0.1
2014-Jul-17 23:33N 49°11' W 123°52'3 2.7
2014-Jul-17 22:33N 49°10' W 123°56'1 0.7
2014-Jul-17 21:34N 49°10' W 123°55'2 2.0
2014-Jul-17 20:31N 49°11' W 123°52'0 0.1
2014-Jul-17 19:32N 49°11' W 123°52'2 2.5
2014-Jul-17 18:33N 49°10' W 123°55'0 0.3
2014-Jul-17 17:30N 49°10' W 123°56'1 1.4
2014-Jul-17 16:33N 49°10' W 123°54'2 1.6
2014-Jul-17 15:33N 49°11' W 123°52'0 0.0
2014-Jul-17 14:25N 49°11' W 123°52'0 0.5
2014-Jul-17 13:34N 49°11' W 123°52'0 0.1
2014-Jul-17 12:33N 49°11' W 123°52'0 0.4
2014-Jul-17 11:32N 49°11' W 123°52'0 0.0
2014-Jul-17 10:26N 49°11' W 123°52'0 0.0
2014-Jul-17 09:26N 49°11' W 123°52'0 0.0
2014-Jul-17 08:29N 49°11' W 123°52'0 0.0
2014-Jul-17 07:26N 49°11' W 123°52'0 0.0
2014-Jul-17 06:33N 49°11' W 123°52'3 2.9
2014-Jul-17 05:34N 49°10' W 123°56'3 2.8
2014-Jul-17 04:32N 49°11' W 123°52'2 1.8
2014-Jul-17 03:33N 49°10' W 123°54'1 0.7
2014-Jul-17 02:33N 49°11' W 123°53'1 0.8
2014-Jul-17 01:32N 49°11' W 123°52'0 0.4
2014-Jul-17 00:33N 49°11' W 123°52'0 0.0
2014-Jul-16 23:30N 49°11' W 123°52'3 3.0
2014-Jul-16 22:34N 49°10' W 123°56'3 2.7
2014-Jul-16 21:31N 49°11' W 123°52'0 0.0
2014-Jul-16 20:33N 49°11' W 123°52'2 2.0
2014-Jul-16 19:33N 49°10' W 123°54'1 0.9
2014-Jul-16 18:33N 49°10' W 123°56'0 0.0
2014-Jul-16 17:22N 49°10' W 123°56'1 1.8
2014-Jul-16 16:33N 49°10' W 123°54'1 1.4
2014-Jul-16 15:33N 49°11' W 123°52'0 0.0
2014-Jul-16 14:23N 49°11' W 123°52'0 0.5
2014-Jul-16 13:33N 49°11' W 123°52'0 0.0
2014-Jul-16 12:33N 49°11' W 123°52'0 0.2
2014-Jul-16 10:32N 49°11' W 123°52'0 0.0
2014-Jul-16 09:26N 49°11' W 123°52'0 0.0
2014-Jul-16 08:20N 49°11' W 123°52'0 0.0
2014-Jul-16 06:32N 49°11' W 123°52'0 0.0
2014-Jul-16 05:33N 49°11' W 123°52'0 0.0
2014-Jul-16 04:32N 49°11' W 123°52'1 1.3
2014-Jul-16 03:33N 49°10' W 123°53'0 0.2
2014-Jul-16 02:33N 49°11' W 123°53'1 0.7
2014-Jul-16 01:32N 49°11' W 123°52'0 0.3
2014-Jul-16 00:32N 49°11' W 123°52'0 0.3
2014-Jul-15 23:33N 49°11' W 123°52'3 2.7
2014-Jul-15 22:34N 49°10' W 123°56'3 2.8
2014-Jul-15 21:33N 49°11' W 123°52'0 0.1
2014-Jul-15 20:33N 49°11' W 123°52'1 0.6
2014-Jul-15 19:32N 49°11' W 123°53'2 2.0
2014-Jul-15 18:33N 49°10' W 123°55'0 0.4
2014-Jul-15 17:33N 49°10' W 123°56'0 0.2
2014-Jul-15 16:33N 49°10' W 123°56'3 2.6
2014-Jul-15 15:33N 49°11' W 123°52'0 0.1
2014-Jul-15 14:33N 49°11' W 123°52'1 0.7
2014-Jul-15 13:33N 49°11' W 123°53'0 0.0
2014-Jul-15 12:33N 49°11' W 123°53'1 0.6
2014-Jul-15 11:27N 49°11' W 123°52'0 0.0
2014-Jul-15 09:33N 49°11' W 123°52'0 0.0
2014-Jul-15 08:27N 49°11' W 123°52'0 0.0
2014-Jul-15 06:27N 49°11' W 123°52'0 0.0
2014-Jul-15 05:32N 49°11' W 123°52'0 0.0
2014-Jul-15 04:33N 49°11' W 123°52'2 1.5
2014-Jul-15 03:33N 49°10' W 123°54'0 0.4
2014-Jul-15 02:33N 49°10' W 123°53'1 0.5
2014-Jul-15 01:33N 49°11' W 123°53'1 0.6
2014-Jul-15 00:31N 49°11' W 123°52'0 0.4
2014-Jul-14 23:33N 49°11' W 123°52'3 2.5
2014-Jul-14 22:33N 49°10' W 123°56'3 2.8
2014-Jul-14 21:32N 49°11' W 123°52'1 1.0
2014-Jul-14 20:33N 49°10' W 123°53'2 1.9
2014-Jul-14 19:34N 49°10' W 123°56'0 0.0
2014-Jul-14 18:32N 49°10' W 123°56'0 0.0
2014-Jul-14 17:18N 49°10' W 123°56'3 3.5
2014-Jul-14 16:33N 49°11' W 123°52'0 0.3
2014-Jul-14 15:33N 49°11' W 123°52'0 0.0
2014-Jul-14 14:33N 49°11' W 123°52'0 0.0
2014-Jul-14 13:32N 49°11' W 123°52'0 0.5
2014-Jul-14 12:34N 49°11' W 123°52'1 0.2
2014-Jul-14 10:11N 49°11' W 123°52'0 0.0
2014-Jul-14 09:17N 49°11' W 123°52'0 0.0
2014-Jul-14 08:29N 49°11' W 123°52'0 0.0
2014-Jul-14 07:29N 49°11' W 123°52'0 0.0
2014-Jul-14 06:26N 49°11' W 123°52'3 2.9
2014-Jul-14 05:33N 49°10' W 123°55'3 2.5
2014-Jul-14 04:33N 49°11' W 123°52'2 1.7
2014-Jul-14 03:33N 49°10' W 123°54'1 0.7
2014-Jul-14 02:33N 49°11' W 123°53'1 1.0
2014-Jul-14 01:33N 49°11' W 123°52'0 0.1
2014-Jul-14 00:31N 49°11' W 123°52'0 0.1
2014-Jul-13 23:33N 49°11' W 123°52'3 2.8
2014-Jul-13 22:34N 49°10' W 123°56'3 2.4
2014-Jul-13 21:22N 49°11' W 123°52'3 3.6
2014-Jul-13 20:34N 49°10' W 123°56'1 1.2
2014-Jul-13 19:33N 49°10' W 123°54'2 1.7
2014-Jul-13 18:33N 49°11' W 123°52'3 2.6
2014-Jul-13 17:27N 49°10' W 123°56'2 2.5
2014-Jul-13 16:33N 49°11' W 123°53'0 0.3
2014-Jul-13 15:26N 49°11' W 123°52'3 3.0
2014-Jul-13 14:33N 49°10' W 123°56'3 2.5
2014-Jul-13 13:33N 49°11' W 123°52'0 0.1
2014-Jul-13 08:33N 49°11' W 123°52'0 0.0
2014-Jul-13 07:33N 49°11' W 123°52'0 0.0
2014-Jul-13 06:33N 49°11' W 123°52'0 0.0
2014-Jul-13 05:31N 49°11' W 123°52'0 0.0
2014-Jul-13 04:29N 49°11' W 123°52'2 2.2
2014-Jul-13 03:33N 49°10' W 123°54'0 0.5
2014-Jul-13 02:33N 49°11' W 123°54'1 1.4
2014-Jul-13 01:34N 49°11' W 123°52'  

Dump ship's entire track history